sensor_id;sensor_type;location;lat;lon;timestamp;temperature;humidity
77496;SHT31;66600;48.378;9.948;2023-05-10T00:01:02;12.93;95.51
77496;SHT31;66600;48.378;9.948;2023-05-10T00:03:27;12.93;95.37
77496;SHT31;66600;48.378;9.948;2023-05-10T00:05:53;12.93;95.95
77496;SHT31;66600;48.378;9.948;2023-05-10T00:08:18;12.90;95.50
77496;SHT31;66600;48.378;9.948;2023-05-10T00:10:43;12.93;95.81
77496;SHT31;66600;48.378;9.948;2023-05-10T00:13:09;12.94;95.91
77496;SHT31;66600;48.378;9.948;2023-05-10T00:15:34;12.95;95.91
77496;SHT31;66600;48.378;9.948;2023-05-10T00:17:59;13.00;96.42
77496;SHT31;66600;48.378;9.948;2023-05-10T00:20:25;12.97;96.02
77496;SHT31;66600;48.378;9.948;2023-05-10T00:22:50;12.98;96.19
77496;SHT31;66600;48.378;9.948;2023-05-10T00:25:16;12.90;95.48
77496;SHT31;66600;48.378;9.948;2023-05-10T00:27:41;12.87;95.96
77496;SHT31;66600;48.378;9.948;2023-05-10T00:30:07;12.87;95.95
77496;SHT31;66600;48.378;9.948;2023-05-10T00:32:32;12.88;95.92
77496;SHT31;66600;48.378;9.948;2023-05-10T00:34:58;12.88;95.94
77496;SHT31;66600;48.378;9.948;2023-05-10T00:37:23;12.87;95.76
77496;SHT31;66600;48.378;9.948;2023-05-10T00:39:48;12.83;95.71
77496;SHT31;66600;48.378;9.948;2023-05-10T00:42:14;12.81;95.59
77496;SHT31;66600;48.378;9.948;2023-05-10T00:44:39;12.81;96.17
77496;SHT31;66600;48.378;9.948;2023-05-10T00:47:05;12.84;96.31
77496;SHT31;66600;48.378;9.948;2023-05-10T00:49:30;12.81;96.10
77496;SHT31;66600;48.378;9.948;2023-05-10T00:51:56;12.83;96.18
77496;SHT31;66600;48.378;9.948;2023-05-10T00:54:21;12.81;95.96
77496;SHT31;66600;48.378;9.948;2023-05-10T00:56:47;12.87;96.11
77496;SHT31;66600;48.378;9.948;2023-05-10T00:59:15;12.87;96.25
77496;SHT31;66600;48.378;9.948;2023-05-10T01:01:42;12.80;96.31
77496;SHT31;66600;48.378;9.948;2023-05-10T01:04:08;12.83;96.25
77496;SHT31;66600;48.378;9.948;2023-05-10T01:06:35;12.76;96.02
77496;SHT31;66600;48.378;9.948;2023-05-10T01:09:00;12.74;95.89
77496;SHT31;66600;48.378;9.948;2023-05-10T01:11:25;12.73;96.12
77496;SHT31;66600;48.378;9.948;2023-05-10T01:13:55;12.70;96.32
77496;SHT31;66600;48.378;9.948;2023-05-10T01:16:22;12.72;96.76
77496;SHT31;66600;48.378;9.948;2023-05-10T01:18:48;12.73;96.47
77496;SHT31;66600;48.378;9.948;2023-05-10T01:21:23;12.74;96.15
77496;SHT31;66600;48.378;9.948;2023-05-10T01:27:07;12.64;95.58
77496;SHT31;66600;48.378;9.948;2023-05-10T01:38:53;12.66;96.14
77496;SHT31;66600;48.378;9.948;2023-05-10T01:44:33;12.61;96.59
77496;SHT31;66600;48.378;9.948;2023-05-10T01:47:10;12.60;96.86
77496;SHT31;66600;48.378;9.948;2023-05-10T01:49:56;12.59;97.01
77496;SHT31;66600;48.378;9.948;2023-05-10T01:52:32;12.56;96.99
77496;SHT31;66600;48.378;9.948;2023-05-10T01:55:28;12.57;97.00
77496;SHT31;66600;48.378;9.948;2023-05-10T01:58:07;12.64;96.52
77496;SHT31;66600;48.378;9.948;2023-05-10T02:00:34;12.59;96.35
77496;SHT31;66600;48.378;9.948;2023-05-10T02:03:03;12.57;95.86
77496;SHT31;66600;48.378;9.948;2023-05-10T02:05:30;12.56;95.63
77496;SHT31;66600;48.378;9.948;2023-05-10T02:07:58;12.53;95.24
77496;SHT31;66600;48.378;9.948;2023-05-10T02:10:23;12.46;94.94
77496;SHT31;66600;48.378;9.948;2023-05-10T02:12:50;12.39;94.09
77496;SHT31;66600;48.378;9.948;2023-05-10T02:15:19;12.28;93.11
77496;SHT31;66600;48.378;9.948;2023-05-10T02:17:46;12.19;92.53
77496;SHT31;66600;48.378;9.948;2023-05-10T02:20:13;12.15;92.36
77496;SHT31;66600;48.378;9.948;2023-05-10T02:22:39;12.14;92.04
77496;SHT31;66600;48.378;9.948;2023-05-10T02:25:06;12.06;92.22
77496;SHT31;66600;48.378;9.948;2023-05-10T02:27:34;12.06;91.45
77496;SHT31;66600;48.378;9.948;2023-05-10T02:30:00;12.02;92.36
77496;SHT31;66600;48.378;9.948;2023-05-10T02:32:27;12.01;92.28
77496;SHT31;66600;48.378;9.948;2023-05-10T02:34:53;12.01;92.24
77496;SHT31;66600;48.378;9.948;2023-05-10T02:37:21;12.01;92.52
77496;SHT31;66600;48.378;9.948;2023-05-10T02:39:47;12.01;92.27
77496;SHT31;66600;48.378;9.948;2023-05-10T02:42:19;11.95;92.62
77496;SHT31;66600;48.378;9.948;2023-05-10T02:44:50;11.97;92.43
77496;SHT31;66600;48.378;9.948;2023-05-10T02:47:16;11.95;92.57
77496;SHT31;66600;48.378;9.948;2023-05-10T02:49:42;11.95;92.56
77496;SHT31;66600;48.378;9.948;2023-05-10T02:52:08;11.92;92.48
77496;SHT31;66600;48.378;9.948;2023-05-10T02:54:41;11.90;92.74
77496;SHT31;66600;48.378;9.948;2023-05-10T02:57:11;11.92;91.81
77496;SHT31;66600;48.378;9.948;2023-05-10T02:59:40;11.88;92.31
77496;SHT31;66600;48.378;9.948;2023-05-10T03:02:08;11.87;92.27
77496;SHT31;66600;48.378;9.948;2023-05-10T03:04:34;11.80;92.35
77496;SHT31;66600;48.378;9.948;2023-05-10T03:06:59;11.81;92.22
77496;SHT31;66600;48.378;9.948;2023-05-10T03:09:24;11.77;92.12
77496;SHT31;66600;48.378;9.948;2023-05-10T03:12:00;11.74;92.40
77496;SHT31;66600;48.378;9.948;2023-05-10T03:17:23;11.70;92.44
77496;SHT31;66600;48.378;9.948;2023-05-10T03:19:56;11.70;92.21
77496;SHT31;66600;48.378;9.948;2023-05-10T03:22:28;11.67;92.70
77496;SHT31;66600;48.378;9.948;2023-05-10T03:24:56;11.67;92.57
77496;SHT31;66600;48.378;9.948;2023-05-10T03:27:23;11.63;92.60
77496;SHT31;66600;48.378;9.948;2023-05-10T03:29:50;11.60;92.61
77496;SHT31;66600;48.378;9.948;2023-05-10T03:32:16;11.54;92.67
77496;SHT31;66600;48.378;9.948;2023-05-10T03:34:42;11.47;92.86
77496;SHT31;66600;48.378;9.948;2023-05-10T03:37:08;11.47;92.77
77496;SHT31;66600;48.378;9.948;2023-05-10T03:39:33;11.37;91.83
77496;SHT31;66600;48.378;9.948;2023-05-10T03:41:59;11.39;91.63
77496;SHT31;66600;48.378;9.948;2023-05-10T03:44:24;11.34;91.96
77496;SHT31;66600;48.378;9.948;2023-05-10T03:46:49;11.29;91.49
77496;SHT31;66600;48.378;9.948;2023-05-10T03:49:15;11.22;91.76
77496;SHT31;66600;48.378;9.948;2023-05-10T03:51:40;11.16;91.94
77496;SHT31;66600;48.378;9.948;2023-05-10T03:54:05;11.22;92.05
77496;SHT31;66600;48.378;9.948;2023-05-10T03:56:30;11.18;92.31
77496;SHT31;66600;48.378;9.948;2023-05-10T03:58:56;11.15;92.34
77496;SHT31;66600;48.378;9.948;2023-05-10T04:01:21;11.09;92.51
77496;SHT31;66600;48.378;9.948;2023-05-10T04:03:46;11.11;92.67
77496;SHT31;66600;48.378;9.948;2023-05-10T04:06:12;11.13;92.98
77496;SHT31;66600;48.378;9.948;2023-05-10T04:08:37;11.08;93.13
77496;SHT31;66600;48.378;9.948;2023-05-10T04:11:07;11.09;93.08
77496;SHT31;66600;48.378;9.948;2023-05-10T04:13:33;11.08;92.92
77496;SHT31;66600;48.378;9.948;2023-05-10T04:15:59;11.09;92.82
77496;SHT31;66600;48.378;9.948;2023-05-10T04:18:24;11.06;93.01
77496;SHT31;66600;48.378;9.948;2023-05-10T04:20:49;11.05;93.28
77496;SHT31;66600;48.378;9.948;2023-05-10T04:23:15;11.04;93.53
77496;SHT31;66600;48.378;9.948;2023-05-10T04:25:41;11.02;93.87
77496;SHT31;66600;48.378;9.948;2023-05-10T04:28:07;11.04;94.61
77496;SHT31;66600;48.378;9.948;2023-05-10T04:30:32;11.01;94.96
77496;SHT31;66600;48.378;9.948;2023-05-10T04:33:00;10.99;94.80
77496;SHT31;66600;48.378;9.948;2023-05-10T04:35:27;11.06;94.16
77496;SHT31;66600;48.378;9.948;2023-05-10T04:37:52;11.02;94.23
77496;SHT31;66600;48.378;9.948;2023-05-10T04:40:17;11.04;93.89
77496;SHT31;66600;48.378;9.948;2023-05-10T04:42:43;11.06;94.11
77496;SHT31;66600;48.378;9.948;2023-05-10T04:45:09;11.05;93.83
77496;SHT31;66600;48.378;9.948;2023-05-10T04:47:34;11.16;93.75
77496;SHT31;66600;48.378;9.948;2023-05-10T04:50:00;11.19;93.09
77496;SHT31;66600;48.378;9.948;2023-05-10T04:52:25;11.26;93.41
77496;SHT31;66600;48.378;9.948;2023-05-10T04:54:51;11.36;93.21
77496;SHT31;66600;48.378;9.948;2023-05-10T04:57:16;11.40;92.49
77496;SHT31;66600;48.378;9.948;2023-05-10T04:59:41;11.40;92.22
77496;SHT31;66600;48.378;9.948;2023-05-10T05:02:07;11.46;92.16
77496;SHT31;66600;48.378;9.948;2023-05-10T05:04:33;11.47;92.65
77496;SHT31;66600;48.378;9.948;2023-05-10T05:06:58;11.49;92.05
77496;SHT31;66600;48.378;9.948;2023-05-10T05:09:23;11.60;92.08
77496;SHT31;66600;48.378;9.948;2023-05-10T05:11:50;11.61;91.83
77496;SHT31;66600;48.378;9.948;2023-05-10T05:14:15;11.66;91.74
77496;SHT31;66600;48.378;9.948;2023-05-10T05:16:40;11.64;91.58
77496;SHT31;66600;48.378;9.948;2023-05-10T05:19:06;11.67;91.34
77496;SHT31;66600;48.378;9.948;2023-05-10T05:21:31;11.64;91.87
77496;SHT31;66600;48.378;9.948;2023-05-10T05:23:57;11.69;91.61
77496;SHT31;66600;48.378;9.948;2023-05-10T05:26:23;11.73;91.84
77496;SHT31;66600;48.378;9.948;2023-05-10T05:28:48;11.74;91.67
77496;SHT31;66600;48.378;9.948;2023-05-10T05:31:16;11.80;91.48
77496;SHT31;66600;48.378;9.948;2023-05-10T05:33:42;11.87;91.99
77496;SHT31;66600;48.378;9.948;2023-05-10T05:36:08;11.85;91.76
77496;SHT31;66600;48.378;9.948;2023-05-10T05:38:33;11.88;91.34
77496;SHT31;66600;48.378;9.948;2023-05-10T05:40:59;11.82;91.38
77496;SHT31;66600;48.378;9.948;2023-05-10T05:43:24;11.90;90.99
77496;SHT31;66600;48.378;9.948;2023-05-10T05:45:52;11.82;91.27
77496;SHT31;66600;48.378;9.948;2023-05-10T05:48:17;11.85;92.08
77496;SHT31;66600;48.378;9.948;2023-05-10T05:50:42;11.88;91.50
77496;SHT31;66600;48.378;9.948;2023-05-10T05:53:08;11.90;91.40
77496;SHT31;66600;48.378;9.948;2023-05-10T05:55:33;12.02;91.19
77496;SHT31;66600;48.378;9.948;2023-05-10T05:57:59;12.02;90.93
77496;SHT31;66600;48.378;9.948;2023-05-10T06:00:24;12.18;90.87
77496;SHT31;66600;48.378;9.948;2023-05-10T06:02:49;12.29;91.02
77496;SHT31;66600;48.378;9.948;2023-05-10T06:05:15;12.32;90.17
77496;SHT31;66600;48.378;9.948;2023-05-10T06:07:40;12.33;90.37
77496;SHT31;66600;48.378;9.948;2023-05-10T06:10:08;12.36;88.81
77496;SHT31;66600;48.378;9.948;2023-05-10T06:12:33;12.42;89.43
77496;SHT31;66600;48.378;9.948;2023-05-10T06:14:58;12.42;89.72
77496;SHT31;66600;48.378;9.948;2023-05-10T06:17:24;12.45;89.66
77496;SHT31;66600;48.378;9.948;2023-05-10T06:19:50;12.53;89.67
77496;SHT31;66600;48.378;9.948;2023-05-10T06:22:15;12.66;88.90
77496;SHT31;66600;48.378;9.948;2023-05-10T06:24:41;12.64;89.14
77496;SHT31;66600;48.378;9.948;2023-05-10T06:27:06;12.70;88.40
77496;SHT31;66600;48.378;9.948;2023-05-10T06:29:32;12.67;88.95
77496;SHT31;66600;48.378;9.948;2023-05-10T06:31:57;12.72;88.12
77496;SHT31;66600;48.378;9.948;2023-05-10T06:34:26;12.68;88.65
77496;SHT31;66600;48.378;9.948;2023-05-10T06:36:51;12.68;88.61
77496;SHT31;66600;48.378;9.948;2023-05-10T06:39:17;12.79;88.60
77496;SHT31;66600;48.378;9.948;2023-05-10T06:41:42;12.83;87.61
77496;SHT31;66600;48.378;9.948;2023-05-10T06:44:07;12.63;87.96
77496;SHT31;66600;48.378;9.948;2023-05-10T06:46:33;12.64;88.24
77496;SHT31;66600;48.378;9.948;2023-05-10T06:48:58;12.79;88.54
77496;SHT31;66600;48.378;9.948;2023-05-10T06:51:24;12.87;88.15
77496;SHT31;66600;48.378;9.948;2023-05-10T06:53:49;12.77;88.64
77496;SHT31;66600;48.378;9.948;2023-05-10T06:56:15;12.81;88.17
77496;SHT31;66600;48.378;9.948;2023-05-10T06:58:40;12.97;88.34
77496;SHT31;66600;48.378;9.948;2023-05-10T07:01:05;12.97;87.82
77496;SHT31;66600;48.378;9.948;2023-05-10T07:03:31;13.05;86.98
77496;SHT31;66600;48.378;9.948;2023-05-10T07:06:01;13.07;87.31
77496;SHT31;66600;48.378;9.948;2023-05-10T07:08:28;12.94;86.77
77496;SHT31;66600;48.378;9.948;2023-05-10T07:11:07;13.14;87.09
77496;SHT31;66600;48.378;9.948;2023-05-10T07:13:33;13.34;86.55
77496;SHT31;66600;48.378;9.948;2023-05-10T07:16:00;13.35;86.14
77496;SHT31;66600;48.378;9.948;2023-05-10T07:18:25;13.40;86.22
77496;SHT31;66600;48.378;9.948;2023-05-10T07:20:51;13.50;85.67
77496;SHT31;66600;48.378;9.948;2023-05-10T07:23:16;13.60;84.71
77496;SHT31;66600;48.378;9.948;2023-05-10T07:25:45;13.50;85.67
77496;SHT31;66600;48.378;9.948;2023-05-10T07:28:11;13.40;85.72
77496;SHT31;66600;48.378;9.948;2023-05-10T07:30:36;13.29;86.58
77496;SHT31;66600;48.378;9.948;2023-05-10T07:33:01;13.43;86.33
77496;SHT31;66600;48.378;9.948;2023-05-10T07:35:27;13.23;86.75
77496;SHT31;66600;48.378;9.948;2023-05-10T07:37:52;13.19;86.31
77496;SHT31;66600;48.378;9.948;2023-05-10T07:40:17;13.22;86.78
77496;SHT31;66600;48.378;9.948;2023-05-10T07:42:43;13.21;87.03
77496;SHT31;66600;48.378;9.948;2023-05-10T07:45:08;13.23;84.23
77496;SHT31;66600;48.378;9.948;2023-05-10T07:47:34;13.31;86.15
77496;SHT31;66600;48.378;9.948;2023-05-10T07:49:59;13.23;83.29
77496;SHT31;66600;48.378;9.948;2023-05-10T07:52:25;13.31;85.19
77496;SHT31;66600;48.378;9.948;2023-05-10T07:54:50;13.49;84.79
77496;SHT31;66600;48.378;9.948;2023-05-10T07:57:23;13.36;82.84
77496;SHT31;66600;48.378;9.948;2023-05-10T07:59:49;13.34;82.29
77496;SHT31;66600;48.378;9.948;2023-05-10T08:02:14;13.50;82.05
77496;SHT31;66600;48.378;9.948;2023-05-10T08:04:39;13.58;81.76
77496;SHT31;66600;48.378;9.948;2023-05-10T08:07:05;13.50;81.40
77496;SHT31;66600;48.378;9.948;2023-05-10T08:09:30;13.52;82.14
77496;SHT31;66600;48.378;9.948;2023-05-10T08:11:55;13.53;80.23
77496;SHT31;66600;48.378;9.948;2023-05-10T08:14:21;13.63;80.72
77496;SHT31;66600;48.378;9.948;2023-05-10T08:16:46;13.83;79.65
77496;SHT31;66600;48.378;9.948;2023-05-10T08:19:12;14.08;78.10
77496;SHT31;66600;48.378;9.948;2023-05-10T08:21:37;14.14;79.05
77496;SHT31;66600;48.378;9.948;2023-05-10T08:24:03;14.15;79.01
77496;SHT31;66600;48.378;9.948;2023-05-10T08:26:28;14.26;78.10
77496;SHT31;66600;48.378;9.948;2023-05-10T08:28:53;14.38;78.06
77496;SHT31;66600;48.378;9.948;2023-05-10T08:31:19;14.39;76.73
77496;SHT31;66600;48.378;9.948;2023-05-10T08:33:44;14.66;77.11
77496;SHT31;66600;48.378;9.948;2023-05-10T08:36:10;14.77;76.39
77496;SHT31;66600;48.378;9.948;2023-05-10T08:38:35;14.69;75.96
77496;SHT31;66600;48.378;9.948;2023-05-10T08:41:02;14.68;75.77
77496;SHT31;66600;48.378;9.948;2023-05-10T08:43:28;14.93;76.14
77496;SHT31;66600;48.378;9.948;2023-05-10T08:45:54;14.84;73.60
77496;SHT31;66600;48.378;9.948;2023-05-10T08:48:23;14.96;74.99
77496;SHT31;66600;48.378;9.948;2023-05-10T08:50:51;15.24;74.35
77496;SHT31;66600;48.378;9.948;2023-05-10T08:53:18;15.30;71.38
77496;SHT31;66600;48.378;9.948;2023-05-10T08:55:44;15.17;73.37
77496;SHT31;66600;48.378;9.948;2023-05-10T08:58:09;15.14;72.76
77496;SHT31;66600;48.378;9.948;2023-05-10T09:00:36;15.16;72.86
77496;SHT31;66600;48.378;9.948;2023-05-10T09:03:03;15.04;71.54
77496;SHT31;66600;48.378;9.948;2023-05-10T09:05:29;15.03;71.97
77496;SHT31;66600;48.378;9.948;2023-05-10T09:07:55;14.63;71.12
77496;SHT31;66600;48.378;9.948;2023-05-10T09:10:20;14.72;73.92
77496;SHT31;66600;48.378;9.948;2023-05-10T09:12:47;14.77;71.26
77496;SHT31;66600;48.378;9.948;2023-05-10T09:15:15;14.52;73.04
77496;SHT31;66600;48.378;9.948;2023-05-10T09:17:41;14.86;75.05
77496;SHT31;66600;48.378;9.948;2023-05-10T09:20:07;14.81;73.81
77496;SHT31;66600;48.378;9.948;2023-05-10T09:22:33;15.21;73.55
77496;SHT31;66600;48.378;9.948;2023-05-10T09:27:31;15.67;71.39
77496;SHT31;66600;48.378;9.948;2023-05-10T09:29:57;15.73;71.11
77496;SHT31;66600;48.378;9.948;2023-05-10T09:32:36;15.66;71.17
77496;SHT31;66600;48.378;9.948;2023-05-10T09:37:39;15.89;70.20
77496;SHT31;66600;48.378;9.948;2023-05-10T09:40:07;15.94;67.76
77496;SHT31;66600;48.378;9.948;2023-05-10T09:42:33;15.81;68.91
77496;SHT31;66600;48.378;9.948;2023-05-10T09:45:05;15.41;69.54
77496;SHT31;66600;48.378;9.948;2023-05-10T09:47:32;15.24;73.33
77496;SHT31;66600;48.378;9.948;2023-05-10T09:49:58;15.25;71.02
77496;SHT31;66600;48.378;9.948;2023-05-10T09:52:46;15.25;70.97
77496;SHT31;66600;48.378;9.948;2023-05-10T09:55:11;15.39;71.67
77496;SHT31;66600;48.378;9.948;2023-05-10T09:57:37;15.31;69.02
77496;SHT31;66600;48.378;9.948;2023-05-10T10:00:03;15.25;68.71
77496;SHT31;66600;48.378;9.948;2023-05-10T10:02:31;15.34;66.91
77496;SHT31;66600;48.378;9.948;2023-05-10T10:04:57;15.24;68.22
77496;SHT31;66600;48.378;9.948;2023-05-10T10:07:23;15.32;67.53
77496;SHT31;66600;48.378;9.948;2023-05-10T10:09:52;15.08;67.95
77496;SHT31;66600;48.378;9.948;2023-05-10T10:12:18;15.28;67.69
77496;SHT31;66600;48.378;9.948;2023-05-10T10:14:46;15.55;67.30
77496;SHT31;66600;48.378;9.948;2023-05-10T10:17:11;15.31;66.39
77496;SHT31;66600;48.378;9.948;2023-05-10T10:19:37;15.32;65.30
77496;SHT31;66600;48.378;9.948;2023-05-10T10:22:03;15.49;65.99
77496;SHT31;66600;48.378;9.948;2023-05-10T10:24:28;15.78;64.51
77496;SHT31;66600;48.378;9.948;2023-05-10T10:26:57;15.94;64.32
77496;SHT31;66600;48.378;9.948;2023-05-10T10:29:39;15.93;64.69
77496;SHT31;66600;48.378;9.948;2023-05-10T10:32:26;16.09;64.75
77496;SHT31;66600;48.378;9.948;2023-05-10T10:34:54;16.17;64.06
77496;SHT31;66600;48.378;9.948;2023-05-10T10:37:19;16.09;64.08
77496;SHT31;66600;48.378;9.948;2023-05-10T10:39:48;16.24;62.99
77496;SHT31;66600;48.378;9.948;2023-05-10T10:42:13;15.66;64.19
77496;SHT31;66600;48.378;9.948;2023-05-10T10:44:39;15.65;63.98
77496;SHT31;66600;48.378;9.948;2023-05-10T10:52:13;16.04;63.52
77496;SHT31;66600;48.378;9.948;2023-05-10T10:54:39;15.94;63.18
77496;SHT31;66600;48.378;9.948;2023-05-10T10:57:12;15.96;64.42
77496;SHT31;66600;48.378;9.948;2023-05-10T10:59:44;15.61;64.24
77496;SHT31;66600;48.378;9.948;2023-05-10T11:02:33;15.93;64.07
77496;SHT31;66600;48.378;9.948;2023-05-10T11:04:59;16.04;63.38
77496;SHT31;66600;48.378;9.948;2023-05-10T11:07:26;16.00;62.92
77496;SHT31;66600;48.378;9.948;2023-05-10T11:09:51;15.78;63.09
77496;SHT31;66600;48.378;9.948;2023-05-10T11:12:16;15.67;63.36
77496;SHT31;66600;48.378;9.948;2023-05-10T11:14:42;15.85;65.05
77496;SHT31;66600;48.378;9.948;2023-05-10T11:17:40;15.76;63.71
77496;SHT31;66600;48.378;9.948;2023-05-10T11:20:14;15.87;64.03
77496;SHT31;66600;48.378;9.948;2023-05-10T11:22:52;15.97;62.52
77496;SHT31;66600;48.378;9.948;2023-05-10T11:25:18;16.31;63.74
77496;SHT31;66600;48.378;9.948;2023-05-10T11:27:44;16.31;67.11
77496;SHT31;66600;48.378;9.948;2023-05-10T11:30:10;16.25;70.01
77496;SHT31;66600;48.378;9.948;2023-05-10T11:32:40;15.83;70.91
77496;SHT31;66600;48.378;9.948;2023-05-10T11:35:09;15.76;71.36
77496;SHT31;66600;48.378;9.948;2023-05-10T11:37:35;15.52;72.39
77496;SHT31;66600;48.378;9.948;2023-05-10T11:40:00;15.37;72.38
77496;SHT31;66600;48.378;9.948;2023-05-10T11:42:27;15.41;72.78
77496;SHT31;66600;48.378;9.948;2023-05-10T11:44:53;15.42;72.13
77496;SHT31;66600;48.378;9.948;2023-05-10T11:47:18;15.39;72.55
77496;SHT31;66600;48.378;9.948;2023-05-10T11:49:44;15.30;71.54
77496;SHT31;66600;48.378;9.948;2023-05-10T11:52:10;15.10;72.81
77496;SHT31;66600;48.378;9.948;2023-05-10T11:54:44;14.62;74.12
77496;SHT31;66600;48.378;9.948;2023-05-10T11:57:10;14.46;74.02
77496;SHT31;66600;48.378;9.948;2023-05-10T11:59:36;14.31;71.89
77496;SHT31;66600;48.378;9.948;2023-05-10T12:02:01;14.24;71.28
77496;SHT31;66600;48.378;9.948;2023-05-10T12:04:28;13.98;72.76
77496;SHT31;66600;48.378;9.948;2023-05-10T12:06:54;13.50;75.29
77496;SHT31;66600;48.378;9.948;2023-05-10T12:09:19;13.22;76.90
77496;SHT31;66600;48.378;9.948;2023-05-10T12:11:45;13.02;77.63
77496;SHT31;66600;48.378;9.948;2023-05-10T12:14:10;12.91;77.60
77496;SHT31;66600;48.378;9.948;2023-05-10T12:16:36;12.87;78.20
77496;SHT31;66600;48.378;9.948;2023-05-10T12:19:01;12.94;79.22
77496;SHT31;66600;48.378;9.948;2023-05-10T12:21:28;12.80;79.19
77496;SHT31;66600;48.378;9.948;2023-05-10T12:23:59;12.85;79.10
77496;SHT31;66600;48.378;9.948;2023-05-10T12:26:25;12.88;80.44
77496;SHT31;66600;48.378;9.948;2023-05-10T12:28:54;12.87;81.71
77496;SHT31;66600;48.378;9.948;2023-05-10T12:31:20;12.90;82.85
77496;SHT31;66600;48.378;9.948;2023-05-10T12:33:45;13.11;84.10
77496;SHT31;66600;48.378;9.948;2023-05-10T12:36:13;13.15;83.32
77496;SHT31;66600;48.378;9.948;2023-05-10T12:38:40;13.15;83.58
77496;SHT31;66600;48.378;9.948;2023-05-10T12:41:12;13.11;83.23
77496;SHT31;66600;48.378;9.948;2023-05-10T12:43:38;13.18;82.77
77496;SHT31;66600;48.378;9.948;2023-05-10T12:46:08;13.28;82.94
77496;SHT31;66600;48.378;9.948;2023-05-10T12:48:35;13.52;82.32
77496;SHT31;66600;48.378;9.948;2023-05-10T12:51:01;13.69;82.44
77496;SHT31;66600;48.378;9.948;2023-05-10T12:53:27;13.88;82.68
77496;SHT31;66600;48.378;9.948;2023-05-10T12:55:52;13.96;81.00
77496;SHT31;66600;48.378;9.948;2023-05-10T12:58:18;14.13;82.04
77496;SHT31;66600;48.378;9.948;2023-05-10T13:00:44;14.26;81.32
77496;SHT31;66600;48.378;9.948;2023-05-10T13:03:10;14.52;82.32
77496;SHT31;66600;48.378;9.948;2023-05-10T13:05:35;14.75;83.02
77496;SHT31;66600;48.378;9.948;2023-05-10T13:08:01;14.55;80.16
77496;SHT31;66600;48.378;9.948;2023-05-10T13:10:29;14.17;85.23
77496;SHT31;66600;48.378;9.948;2023-05-10T13:12:54;13.96;85.38
77496;SHT31;66600;48.378;9.948;2023-05-10T13:15:19;13.48;83.21
77496;SHT31;66600;48.378;9.948;2023-05-10T13:17:45;12.63;84.35
77496;SHT31;66600;48.378;9.948;2023-05-10T13:20:10;12.12;84.33
77496;SHT31;66600;48.378;9.948;2023-05-10T13:22:36;11.50;85.61
77496;SHT31;66600;48.378;9.948;2023-05-10T13:25:02;11.19;87.57
77496;SHT31;66600;48.378;9.948;2023-05-10T13:27:27;11.09;86.74
77496;SHT31;66600;48.378;9.948;2023-05-10T13:29:53;11.04;87.23
77496;SHT31;66600;48.378;9.948;2023-05-10T13:32:18;11.05;86.86
77496;SHT31;66600;48.378;9.948;2023-05-10T13:34:43;10.94;87.50
77496;SHT31;66600;48.378;9.948;2023-05-10T13:37:09;11.02;88.11
77496;SHT31;66600;48.378;9.948;2023-05-10T13:39:34;10.99;86.97
77496;SHT31;66600;48.378;9.948;2023-05-10T13:42:02;11.09;87.52
77496;SHT31;66600;48.378;9.948;2023-05-10T13:44:28;11.20;86.61
77496;SHT31;66600;48.378;9.948;2023-05-10T13:47:02;11.30;87.86
77496;SHT31;66600;48.378;9.948;2023-05-10T13:49:28;11.47;87.06
77496;SHT31;66600;48.378;9.948;2023-05-10T13:51:53;11.39;86.94
77496;SHT31;66600;48.378;9.948;2023-05-10T13:54:18;11.49;85.94
77496;SHT31;66600;48.378;9.948;2023-05-10T13:56:45;11.53;87.06
77496;SHT31;66600;48.378;9.948;2023-05-10T13:59:12;11.50;87.23
77496;SHT31;66600;48.378;9.948;2023-05-10T14:01:37;11.49;85.58
77496;SHT31;66600;48.378;9.948;2023-05-10T14:04:03;11.54;85.88
77496;SHT31;66600;48.378;9.948;2023-05-10T14:06:28;11.44;84.79
77496;SHT31;66600;48.378;9.948;2023-05-10T14:08:53;11.43;85.14
77496;SHT31;66600;48.378;9.948;2023-05-10T14:11:19;11.43;84.61
77496;SHT31;66600;48.378;9.948;2023-05-10T14:13:47;11.69;85.38
77496;SHT31;66600;48.378;9.948;2023-05-10T14:16:13;11.84;84.70
77496;SHT31;66600;48.378;9.948;2023-05-10T14:18:39;12.12;87.73
77496;SHT31;66600;48.378;9.948;2023-05-10T14:21:05;12.43;86.50
77496;SHT31;66600;48.378;9.948;2023-05-10T14:23:30;12.76;85.35
77496;SHT31;66600;48.378;9.948;2023-05-10T14:25:56;12.95;86.08
77496;SHT31;66600;48.378;9.948;2023-05-10T14:28:21;13.08;86.20
77496;SHT31;66600;48.378;9.948;2023-05-10T14:30:48;13.05;82.74
77496;SHT31;66600;48.378;9.948;2023-05-10T14:33:13;12.84;83.58
77496;SHT31;66600;48.378;9.948;2023-05-10T14:35:39;12.93;85.77
77496;SHT31;66600;48.378;9.948;2023-05-10T14:38:04;13.00;86.05
77496;SHT31;66600;48.378;9.948;2023-05-10T14:40:30;13.05;84.13
77496;SHT31;66600;48.378;9.948;2023-05-10T14:42:55;13.15;84.79
77496;SHT31;66600;48.378;9.948;2023-05-10T14:45:21;13.19;85.06
77496;SHT31;66600;48.378;9.948;2023-05-10T14:47:47;13.23;85.19
77496;SHT31;66600;48.378;9.948;2023-05-10T14:50:13;13.25;83.99
77496;SHT31;66600;48.378;9.948;2023-05-10T14:52:38;13.32;83.88
77496;SHT31;66600;48.378;9.948;2023-05-10T14:55:04;13.40;83.29
77496;SHT31;66600;48.378;9.948;2023-05-10T14:57:29;13.40;83.61
77496;SHT31;66600;48.378;9.948;2023-05-10T14:59:55;13.40;83.09
77496;SHT31;66600;48.378;9.948;2023-05-10T15:02:21;13.50;82.55
77496;SHT31;66600;48.378;9.948;2023-05-10T15:04:46;13.43;82.30
77496;SHT31;66600;48.378;9.948;2023-05-10T15:07:12;13.45;81.10
77496;SHT31;66600;48.378;9.948;2023-05-10T15:09:39;13.52;83.37
77496;SHT31;66600;48.378;9.948;2023-05-10T15:12:04;13.53;83.98
77496;SHT31;66600;48.378;9.948;2023-05-10T15:14:30;13.59;83.24
77496;SHT31;66600;48.378;9.948;2023-05-10T15:16:55;13.56;84.21
77496;SHT31;66600;48.378;9.948;2023-05-10T15:19:21;13.48;82.95
77496;SHT31;66600;48.378;9.948;2023-05-10T15:21:46;13.46;84.11
77496;SHT31;66600;48.378;9.948;2023-05-10T15:24:12;13.46;82.88
77496;SHT31;66600;48.378;9.948;2023-05-10T15:26:37;13.56;83.61
77496;SHT31;66600;48.378;9.948;2023-05-10T15:29:02;13.63;85.26
77496;SHT31;66600;48.378;9.948;2023-05-10T15:31:28;13.53;84.35
77496;SHT31;66600;48.378;9.948;2023-05-10T15:33:59;13.53;84.47
77496;SHT31;66600;48.378;9.948;2023-05-10T15:36:24;13.52;84.88
77496;SHT31;66600;48.378;9.948;2023-05-10T15:38:50;13.29;82.94
77496;SHT31;66600;48.378;9.948;2023-05-10T15:41:15;13.22;83.14
77496;SHT31;66600;48.378;9.948;2023-05-10T15:43:40;13.23;84.48
77496;SHT31;66600;48.378;9.948;2023-05-10T15:46:06;13.22;84.72
77496;SHT31;66600;48.378;9.948;2023-05-10T15:48:32;13.18;84.32
77496;SHT31;66600;48.378;9.948;2023-05-10T15:50:57;13.15;84.04
77496;SHT31;66600;48.378;9.948;2023-05-10T15:53:23;13.00;84.35
77496;SHT31;66600;48.378;9.948;2023-05-10T15:55:48;12.95;85.39